sensor_id;sensor_type;location;lat;lon;timestamp;P1;durP1;ratioP1;P2;durP2;ratioP2
58446;SDS011;44240;51.840;7.258;2024-02-26T00:02:07;4.82;;;3.30;;
58446;SDS011;44240;51.840;7.258;2024-02-26T00:04:34;3.13;;;2.25;;
58446;SDS011;44240;51.840;7.258;2024-02-26T00:07:01;4.80;;;3.20;;
58446;SDS011;44240;51.840;7.258;2024-02-26T00:09:28;5.50;;;2.90;;
58446;SDS011;44240;51.840;7.258;2024-02-26T00:11:54;3.35;;;2.40;;
58446;SDS011;44240;51.840;7.258;2024-02-26T00:14:21;4.03;;;2.63;;
58446;SDS011;44240;51.840;7.258;2024-02-26T00:16:48;4.60;;;2.80;;
58446;SDS011;44240;51.840;7.258;2024-02-26T00:19:15;3.85;;;3.08;;
58446;SDS011;44240;51.840;7.258;2024-02-26T00:21:42;5.18;;;2.88;;
58446;SDS011;44240;51.840;7.258;2024-02-26T00:24:09;3.08;;;2.78;;
58446;SDS011;44240;51.840;7.258;2024-02-26T00:26:36;4.88;;;2.55;;
58446;SDS011;44240;51.840;7.258;2024-02-26T00:29:03;4.55;;;2.75;;
58446;SDS011;44240;51.840;7.258;2024-02-26T00:31:30;4.10;;;2.67;;
58446;SDS011;44240;51.840;7.258;2024-02-26T00:33:57;3.90;;;2.67;;
58446;SDS011;44240;51.840;7.258;2024-02-26T00:36:24;3.92;;;2.65;;
58446;SDS011;44240;51.840;7.258;2024-02-26T00:38:51;3.25;;;2.67;;
58446;SDS011;44240;51.840;7.258;2024-02-26T00:41:18;3.75;;;2.65;;
58446;SDS011;44240;51.840;7.258;2024-02-26T00:43:45;3.17;;;2.63;;
58446;SDS011;44240;51.840;7.258;2024-02-26T00:46:12;2.85;;;2.15;;
58446;SDS011;44240;51.840;7.258;2024-02-26T00:48:39;4.25;;;2.80;;
58446;SDS011;44240;51.840;7.258;2024-02-26T00:51:06;3.65;;;2.42;;
58446;SDS011;44240;51.840;7.258;2024-02-26T00:53:34;3.55;;;2.50;;
58446;SDS011;44240;51.840;7.258;2024-02-26T00:56:01;4.45;;;2.65;;
58446;SDS011;44240;51.840;7.258;2024-02-26T00:58:27;2.88;;;2.35;;
58446;SDS011;44240;51.840;7.258;2024-02-26T01:00:54;4.10;;;2.40;;
58446;SDS011;44240;51.840;7.258;2024-02-26T01:03:21;3.45;;;2.67;;
58446;SDS011;44240;51.840;7.258;2024-02-26T01:05:48;3.25;;;2.67;;
58446;SDS011;44240;51.840;7.258;2024-02-26T01:08:15;3.28;;;2.40;;
58446;SDS011;44240;51.840;7.258;2024-02-26T01:10:42;3.20;;;2.25;;
58446;SDS011;44240;51.840;7.258;2024-02-26T01:13:09;3.55;;;2.60;;
58446;SDS011;44240;51.840;7.258;2024-02-26T01:15:36;3.22;;;2.25;;
58446;SDS011;44240;51.840;7.258;2024-02-26T01:18:03;3.60;;;2.30;;
58446;SDS011;44240;51.840;7.258;2024-02-26T01:20:30;2.88;;;1.98;;
58446;SDS011;44240;51.840;7.258;2024-02-26T01:22:57;2.08;;;1.88;;
58446;SDS011;44240;51.840;7.258;2024-02-26T01:25:24;3.50;;;2.13;;
58446;SDS011;44240;51.840;7.258;2024-02-26T01:27:51;4.20;;;2.10;;
58446;SDS011;44240;51.840;7.258;2024-02-26T01:30:17;2.95;;;1.80;;
58446;SDS011;44240;51.840;7.258;2024-02-26T01:32:44;2.20;;;1.70;;
58446;SDS011;44240;51.840;7.258;2024-02-26T01:35:12;2.65;;;1.80;;
58446;SDS011;44240;51.840;7.258;2024-02-26T01:37:39;2.05;;;1.85;;
58446;SDS011;44240;51.840;7.258;2024-02-26T01:40:06;3.47;;;2.08;;
58446;SDS011;44240;51.840;7.258;2024-02-26T01:42:33;2.13;;;1.92;;
58446;SDS011;44240;51.840;7.258;2024-02-26T01:45:00;4.68;;;2.22;;
58446;SDS011;44240;51.840;7.258;2024-02-26T01:47:28;2.13;;;2.00;;
58446;SDS011;44240;51.840;7.258;2024-02-26T01:49:55;2.67;;;2.00;;
58446;SDS011;44240;51.840;7.258;2024-02-26T01:52:22;1.77;;;1.50;;
58446;SDS011;44240;51.840;7.258;2024-02-26T01:54:49;2.38;;;1.50;;
58446;SDS011;44240;51.840;7.258;2024-02-26T01:57:16;1.85;;;1.40;;
58446;SDS011;44240;51.840;7.258;2024-02-26T01:59:44;2.10;;;1.80;;
58446;SDS011;44240;51.840;7.258;2024-02-26T02:02:11;2.38;;;1.63;;
58446;SDS011;44240;51.840;7.258;2024-02-26T02:04:39;2.70;;;1.83;;
58446;SDS011;44240;51.840;7.258;2024-02-26T02:07:06;2.17;;;1.52;;
58446;SDS011;44240;51.840;7.258;2024-02-26T02:09:33;2.38;;;1.60;;
58446;SDS011;44240;51.840;7.258;2024-02-26T02:12:00;1.95;;;1.63;;
58446;SDS011;44240;51.840;7.258;2024-02-26T02:14:27;2.75;;;1.73;;
58446;SDS011;44240;51.840;7.258;2024-02-26T02:16:54;1.70;;;1.60;;
58446;SDS011;44240;51.840;7.258;2024-02-26T02:19:21;2.17;;;1.50;;
58446;SDS011;44240;51.840;7.258;2024-02-26T02:21:48;2.13;;;1.48;;
58446;SDS011;44240;51.840;7.258;2024-02-26T02:24:15;2.20;;;1.40;;
58446;SDS011;44240;51.840;7.258;2024-02-26T02:26:42;3.25;;;1.58;;
58446;SDS011;44240;51.840;7.258;2024-02-26T02:29:09;1.98;;;1.60;;
58446;SDS011;44240;51.840;7.258;2024-02-26T02:31:37;2.25;;;1.35;;
58446;SDS011;44240;51.840;7.258;2024-02-26T02:34:04;1.90;;;1.30;;
58446;SDS011;44240;51.840;7.258;2024-02-26T02:36:31;1.38;;;1.27;;
58446;SDS011;44240;51.840;7.258;2024-02-26T02:38:58;1.95;;;1.20;;
58446;SDS011;44240;51.840;7.258;2024-02-26T02:41:25;2.60;;;1.77;;
58446;SDS011;44240;51.840;7.258;2024-02-26T02:43:53;1.70;;;1.40;;
58446;SDS011;44240;51.840;7.258;2024-02-26T02:46:20;1.92;;;1.48;;
58446;SDS011;44240;51.840;7.258;2024-02-26T02:48:47;1.58;;;1.20;;
58446;SDS011;44240;51.840;7.258;2024-02-26T02:51:14;2.30;;;1.40;;
58446;SDS011;44240;51.840;7.258;2024-02-26T02:53:41;2.15;;;1.60;;
58446;SDS011;44240;51.840;7.258;2024-02-26T02:56:08;2.13;;;1.60;;
58446;SDS011;44240;51.840;7.258;2024-02-26T02:58:34;1.63;;;1.52;;
58446;SDS011;44240;51.840;7.258;2024-02-26T03:01:01;2.00;;;1.60;;
58446;SDS011;44240;51.840;7.258;2024-02-26T03:03:28;4.88;;;1.88;;
58446;SDS011;44240;51.840;7.258;2024-02-26T03:05:55;2.72;;;1.70;;
58446;SDS011;44240;51.840;7.258;2024-02-26T03:08:22;2.88;;;1.80;;
58446;SDS011;44240;51.840;7.258;2024-02-26T03:10:50;3.20;;;1.90;;
58446;SDS011;44240;51.840;7.258;2024-02-26T03:13:17;2.80;;;1.77;;
58446;SDS011;44240;51.840;7.258;2024-02-26T03:15:43;1.85;;;1.48;;
58446;SDS011;44240;51.840;7.258;2024-02-26T03:18:10;3.10;;;1.50;;
58446;SDS011;44240;51.840;7.258;2024-02-26T03:20:37;2.40;;;1.60;;
58446;SDS011;44240;51.840;7.258;2024-02-26T03:23:04;2.10;;;1.58;;
58446;SDS011;44240;51.840;7.258;2024-02-26T03:25:31;2.75;;;1.65;;
58446;SDS011;44240;51.840;7.258;2024-02-26T03:27:58;3.75;;;1.92;;
58446;SDS011;44240;51.840;7.258;2024-02-26T03:30:25;2.35;;;1.80;;
58446;SDS011;44240;51.840;7.258;2024-02-26T03:32:52;1.85;;;1.08;;
58446;SDS011;44240;51.840;7.258;2024-02-26T03:35:19;1.80;;;1.63;;
58446;SDS011;44240;51.840;7.258;2024-02-26T03:37:46;2.28;;;1.38;;
58446;SDS011;44240;51.840;7.258;2024-02-26T03:40:14;2.03;;;1.48;;
58446;SDS011;44240;51.840;7.258;2024-02-26T03:42:41;2.95;;;1.42;;
58446;SDS011;44240;51.840;7.258;2024-02-26T03:45:08;1.83;;;1.23;;
58446;SDS011;44240;51.840;7.258;2024-02-26T03:47:37;1.80;;;1.58;;
58446;SDS011;44240;51.840;7.258;2024-02-26T03:50:08;1.67;;;1.23;;
58446;SDS011;44240;51.840;7.258;2024-02-26T03:52:35;1.95;;;1.33;;
58446;SDS011;44240;51.840;7.258;2024-02-26T03:55:01;2.60;;;1.60;;
58446;SDS011;44240;51.840;7.258;2024-02-26T03:57:29;1.73;;;1.35;;
58446;SDS011;44240;51.840;7.258;2024-02-26T03:59:56;1.70;;;1.35;;
58446;SDS011;44240;51.840;7.258;2024-02-26T04:02:23;4.05;;;1.50;;
58446;SDS011;44240;51.840;7.258;2024-02-26T04:04:51;1.80;;;1.35;;
58446;SDS011;44240;51.840;7.258;2024-02-26T04:07:18;2.67;;;1.65;;
58446;SDS011;44240;51.840;7.258;2024-02-26T04:09:45;1.75;;;1.35;;
58446;SDS011;44240;51.840;7.258;2024-02-26T04:12:12;2.38;;;1.40;;
58446;SDS011;44240;51.840;7.258;2024-02-26T04:14:39;2.72;;;1.52;;
58446;SDS011;44240;51.840;7.258;2024-02-26T04:17:06;2.17;;;1.55;;
58446;SDS011;44240;51.840;7.258;2024-02-26T04:19:32;2.88;;;1.33;;
58446;SDS011;44240;51.840;7.258;2024-02-26T04:21:59;2.25;;;1.58;;
58446;SDS011;44240;51.840;7.258;2024-02-26T04:24:26;1.88;;;1.35;;
58446;SDS011;44240;51.840;7.258;2024-02-26T04:26:53;4.13;;;1.80;;
58446;SDS011;44240;51.840;7.258;2024-02-26T04:29:20;2.00;;;1.50;;
58446;SDS011;44240;51.840;7.258;2024-02-26T04:31:47;3.22;;;1.63;;
58446;SDS011;44240;51.840;7.258;2024-02-26T04:34:14;2.05;;;1.50;;
58446;SDS011;44240;51.840;7.258;2024-02-26T04:36:41;2.15;;;1.42;;
58446;SDS011;44240;51.840;7.258;2024-02-26T04:39:09;1.60;;;1.38;;
58446;SDS011;44240;51.840;7.258;2024-02-26T04:41:36;1.73;;;1.38;;
58446;SDS011;44240;51.840;7.258;2024-02-26T04:44:03;3.78;;;1.75;;
58446;SDS011;44240;51.840;7.258;2024-02-26T04:46:30;2.05;;;1.20;;
58446;SDS011;44240;51.840;7.258;2024-02-26T04:48:57;3.08;;;1.63;;
58446;SDS011;44240;51.840;7.258;2024-02-26T04:51:25;2.55;;;1.50;;
58446;SDS011;44240;51.840;7.258;2024-02-26T04:53:52;1.45;;;1.30;;
58446;SDS011;44240;51.840;7.258;2024-02-26T04:56:20;2.40;;;1.30;;
58446;SDS011;44240;51.840;7.258;2024-02-26T04:58:48;2.20;;;1.33;;
58446;SDS011;44240;51.840;7.258;2024-02-26T05:01:15;2.58;;;1.20;;
58446;SDS011;44240;51.840;7.258;2024-02-26T05:03:43;1.83;;;1.35;;
58446;SDS011;44240;51.840;7.258;2024-02-26T05:06:10;2.45;;;1.60;;
58446;SDS011;44240;51.840;7.258;2024-02-26T05:08:37;2.30;;;1.67;;
58446;SDS011;44240;51.840;7.258;2024-02-26T05:11:05;2.85;;;1.50;;
58446;SDS011;44240;51.840;7.258;2024-02-26T05:13:34;2.70;;;1.60;;
58446;SDS011;44240;51.840;7.258;2024-02-26T05:16:01;1.80;;;1.52;;
58446;SDS011;44240;51.840;7.258;2024-02-26T05:18:28;2.78;;;1.75;;
58446;SDS011;44240;51.840;7.258;2024-02-26T05:20:55;2.50;;;1.40;;
58446;SDS011;44240;51.840;7.258;2024-02-26T05:23:22;2.53;;;1.40;;
58446;SDS011;44240;51.840;7.258;2024-02-26T05:25:49;1.75;;;1.40;;
58446;SDS011;44240;51.840;7.258;2024-02-26T05:28:16;2.45;;;1.42;;
58446;SDS011;44240;51.840;7.258;2024-02-26T05:30:44;3.05;;;1.50;;
58446;SDS011;44240;51.840;7.258;2024-02-26T05:33:11;2.25;;;1.35;;
58446;SDS011;44240;51.840;7.258;2024-02-26T05:38:11;2.28;;;1.35;;
58446;SDS011;44240;51.840;7.258;2024-02-26T05:40:38;1.65;;;1.38;;
58446;SDS011;44240;51.840;7.258;2024-02-26T05:43:05;2.28;;;1.40;;
58446;SDS011;44240;51.840;7.258;2024-02-26T05:45:32;1.48;;;1.30;;
58446;SDS011;44240;51.840;7.258;2024-02-26T05:47:59;2.45;;;1.40;;
58446;SDS011;44240;51.840;7.258;2024-02-26T05:50:26;1.83;;;1.50;;
58446;SDS011;44240;51.840;7.258;2024-02-26T05:52:53;1.80;;;1.33;;
58446;SDS011;44240;51.840;7.258;2024-02-26T05:55:20;3.20;;;1.50;;
58446;SDS011;44240;51.840;7.258;2024-02-26T05:57:46;1.35;;;1.10;;
58446;SDS011;44240;51.840;7.258;2024-02-26T06:00:13;1.88;;;1.60;;
58446;SDS011;44240;51.840;7.258;2024-02-26T06:02:41;2.53;;;1.50;;
58446;SDS011;44240;51.840;7.258;2024-02-26T06:05:08;1.92;;;1.35;;
58446;SDS011;44240;51.840;7.258;2024-02-26T06:07:35;1.88;;;1.40;;
58446;SDS011;44240;51.840;7.258;2024-02-26T06:10:02;5.80;;;3.28;;
58446;SDS011;44240;51.840;7.258;2024-02-26T06:12:31;4.10;;;1.60;;
58446;SDS011;44240;51.840;7.258;2024-02-26T06:14:58;3.40;;;1.58;;
58446;SDS011;44240;51.840;7.258;2024-02-26T06:17:27;2.13;;;1.30;;
58446;SDS011;44240;51.840;7.258;2024-02-26T06:19:54;1.80;;;1.20;;
58446;SDS011;44240;51.840;7.258;2024-02-26T06:22:21;2.13;;;1.40;;
58446;SDS011;44240;51.840;7.258;2024-02-26T06:24:48;3.67;;;1.45;;
58446;SDS011;44240;51.840;7.258;2024-02-26T06:27:15;2.25;;;1.30;;
58446;SDS011;44240;51.840;7.258;2024-02-26T06:29:42;1.65;;;1.40;;
58446;SDS011;44240;51.840;7.258;2024-02-26T06:32:09;1.83;;;1.55;;
58446;SDS011;44240;51.840;7.258;2024-02-26T06:34:36;2.30;;;1.42;;
58446;SDS011;44240;51.840;7.258;2024-02-26T06:37:04;2.45;;;1.77;;
58446;SDS011;44240;51.840;7.258;2024-02-26T06:39:31;1.63;;;1.50;;
58446;SDS011;44240;51.840;7.258;2024-02-26T06:41:58;2.55;;;1.60;;
58446;SDS011;44240;51.840;7.258;2024-02-26T06:44:29;3.13;;;1.42;;
58446;SDS011;44240;51.840;7.258;2024-02-26T06:46:58;2.55;;;1.40;;
58446;SDS011;44240;51.840;7.258;2024-02-26T06:49:26;1.80;;;1.20;;
58446;SDS011;44240;51.840;7.258;2024-02-26T06:51:53;1.45;;;1.23;;
58446;SDS011;44240;51.840;7.258;2024-02-26T06:54:20;1.67;;;0.90;;
58446;SDS011;44240;51.840;7.258;2024-02-26T06:56:47;1.58;;;1.10;;
58446;SDS011;44240;51.840;7.258;2024-02-26T06:59:14;1.90;;;1.20;;
58446;SDS011;44240;51.840;7.258;2024-02-26T07:01:41;1.83;;;1.20;;
58446;SDS011;44240;51.840;7.258;2024-02-26T07:04:08;2.95;;;1.48;;
58446;SDS011;44240;51.840;7.258;2024-02-26T07:06:37;1.80;;;1.13;;
58446;SDS011;44240;51.840;7.258;2024-02-26T07:09:04;1.60;;;1.50;;
58446;SDS011;44240;51.840;7.258;2024-02-26T07:11:31;3.42;;;1.50;;
58446;SDS011;44240;51.840;7.258;2024-02-26T07:13:58;2.10;;;1.40;;
58446;SDS011;44240;51.840;7.258;2024-02-26T07:16:25;1.75;;;1.27;;
58446;SDS011;44240;51.840;7.258;2024-02-26T07:18:53;2.42;;;1.50;;
58446;SDS011;44240;51.840;7.258;2024-02-26T07:21:20;1.38;;;1.27;;
58446;SDS011;44240;51.840;7.258;2024-02-26T07:23:47;2.03;;;1.20;;
58446;SDS011;44240;51.840;7.258;2024-02-26T07:26:14;1.73;;;1.30;;
58446;SDS011;44240;51.840;7.258;2024-02-26T07:28:41;2.40;;;1.40;;
58446;SDS011;44240;51.840;7.258;2024-02-26T07:31:08;1.85;;;1.30;;
58446;SDS011;44240;51.840;7.258;2024-02-26T07:33:34;1.75;;;1.38;;
58446;SDS011;44240;51.840;7.258;2024-02-26T07:36:01;1.42;;;1.20;;
58446;SDS011;44240;51.840;7.258;2024-02-26T07:38:29;1.30;;;1.20;;
58446;SDS011;44240;51.840;7.258;2024-02-26T07:41:08;2.03;;;1.40;;
58446;SDS011;44240;51.840;7.258;2024-02-26T07:43:35;2.10;;;1.58;;
58446;SDS011;44240;51.840;7.258;2024-02-26T07:46:02;1.80;;;1.10;;
58446;SDS011;44240;51.840;7.258;2024-02-26T07:48:28;1.67;;;1.38;;
58446;SDS011;44240;51.840;7.258;2024-02-26T07:50:56;2.72;;;1.45;;
58446;SDS011;44240;51.840;7.258;2024-02-26T07:53:25;2.92;;;1.67;;
58446;SDS011;44240;51.840;7.258;2024-02-26T07:55:52;1.77;;;1.23;;
58446;SDS011;44240;51.840;7.258;2024-02-26T07:58:19;3.08;;;1.65;;
58446;SDS011;44240;51.840;7.258;2024-02-26T08:00:46;3.35;;;1.40;;
58446;SDS011;44240;51.840;7.258;2024-02-26T08:03:13;2.13;;;1.20;;
58446;SDS011;44240;51.840;7.258;2024-02-26T08:05:42;1.35;;;1.20;;
58446;SDS011;44240;51.840;7.258;2024-02-26T08:08:09;2.33;;;1.30;;
58446;SDS011;44240;51.840;7.258;2024-02-26T08:10:36;2.08;;;1.42;;
58446;SDS011;44240;51.840;7.258;2024-02-26T08:13:03;1.98;;;1.02;;
58446;SDS011;44240;51.840;7.258;2024-02-26T08:15:34;3.28;;;1.38;;
58446;SDS011;44240;51.840;7.258;2024-02-26T08:18:01;1.63;;;1.20;;
58446;SDS011;44240;51.840;7.258;2024-02-26T08:20:30;2.28;;;1.38;;
58446;SDS011;44240;51.840;7.258;2024-02-26T08:22:57;2.25;;;1.20;;
58446;SDS011;44240;51.840;7.258;2024-02-26T08:25:24;2.35;;;1.35;;
58446;SDS011;44240;51.840;7.258;2024-02-26T08:27:52;1.15;;;0.98;;
58446;SDS011;44240;51.840;7.258;2024-02-26T08:30:18;2.70;;;1.40;;
58446;SDS011;44240;51.840;7.258;2024-02-26T08:32:47;3.03;;;1.52;;
58446;SDS011;44240;51.840;7.258;2024-02-26T08:35:18;1.83;;;1.30;;
58446;SDS011;44240;51.840;7.258;2024-02-26T08:37:45;3.50;;;1.60;;
58446;SDS011;44240;51.840;7.258;2024-02-26T08:40:13;3.75;;;1.20;;
58446;SDS011;44240;51.840;7.258;2024-02-26T08:42:40;2.35;;;1.55;;
58446;SDS011;44240;51.840;7.258;2024-02-26T08:45:08;2.15;;;1.40;;
58446;SDS011;44240;51.840;7.258;2024-02-26T08:47:35;1.88;;;1.60;;
58446;SDS011;44240;51.840;7.258;2024-02-26T08:50:03;2.25;;;1.55;;
58446;SDS011;44240;51.840;7.258;2024-02-26T08:52:30;1.77;;;1.42;;
58446;SDS011;44240;51.840;7.258;2024-02-26T08:54:57;1.95;;;1.27;;
58446;SDS011;44240;51.840;7.258;2024-02-26T08:57:24;3.60;;;2.58;;
58446;SDS011;44240;51.840;7.258;2024-02-26T08:59:53;3.65;;;2.40;;
58446;SDS011;44240;51.840;7.258;2024-02-26T09:02:20;2.20;;;2.00;;
58446;SDS011;44240;51.840;7.258;2024-02-26T09:04:47;3.65;;;2.17;;
58446;SDS011;44240;51.840;7.258;2024-02-26T09:07:14;4.35;;;2.20;;
58446;SDS011;44240;51.840;7.258;2024-02-26T09:09:41;4.15;;;2.22;;
58446;SDS011;44240;51.840;7.258;2024-02-26T09:12:08;2.83;;;2.00;;
58446;SDS011;44240;51.840;7.258;2024-02-26T09:14:35;4.00;;;2.05;;
58446;SDS011;44240;51.840;7.258;2024-02-26T09:17:02;4.38;;;2.17;;
58446;SDS011;44240;51.840;7.258;2024-02-26T09:19:29;4.55;;;2.10;;
58446;SDS011;44240;51.840;7.258;2024-02-26T09:21:56;4.45;;;2.50;;
58446;SDS011;44240;51.840;7.258;2024-02-26T09:24:24;3.97;;;2.42;;
58446;SDS011;44240;51.840;7.258;2024-02-26T09:26:52;3.55;;;2.55;;
58446;SDS011;44240;51.840;7.258;2024-02-26T09:29:19;3.58;;;2.05;;
58446;SDS011;44240;51.840;7.258;2024-02-26T09:31:46;4.70;;;2.60;;
58446;SDS011;44240;51.840;7.258;2024-02-26T09:34:15;4.35;;;2.50;;
58446;SDS011;44240;51.840;7.258;2024-02-26T09:36:42;4.55;;;2.85;;
58446;SDS011;44240;51.840;7.258;2024-02-26T09:39:09;5.03;;;2.90;;
58446;SDS011;44240;51.840;7.258;2024-02-26T09:41:38;3.80;;;2.80;;
58446;SDS011;44240;51.840;7.258;2024-02-26T09:44:05;5.35;;;2.70;;
58446;SDS011;44240;51.840;7.258;2024-02-26T09:46:33;3.88;;;2.47;;
58446;SDS011;44240;51.840;7.258;2024-02-26T09:49:00;4.68;;;2.80;;
58446;SDS011;44240;51.840;7.258;2024-02-26T09:51:27;4.60;;;3.45;;
58446;SDS011;44240;51.840;7.258;2024-02-26T09:53:55;4.40;;;3.03;;
58446;SDS011;44240;51.840;7.258;2024-02-26T09:56:25;6.25;;;3.15;;
58446;SDS011;44240;51.840;7.258;2024-02-26T09:58:53;5.13;;;3.22;;
58446;SDS011;44240;51.840;7.258;2024-02-26T10:01:21;4.43;;;3.08;;
58446;SDS011;44240;51.840;7.258;2024-02-26T10:03:52;4.88;;;3.45;;
58446;SDS011;44240;51.840;7.258;2024-02-26T10:06:24;4.60;;;2.85;;
58446;SDS011;44240;51.840;7.258;2024-02-26T10:08:52;4.07;;;2.92;;
58446;SDS011;44240;51.840;7.258;2024-02-26T10:11:20;4.35;;;2.75;;
58446;SDS011;44240;51.840;7.258;2024-02-26T10:13:48;5.13;;;3.30;;
58446;SDS011;44240;51.840;7.258;2024-02-26T10:16:16;6.35;;;3.30;;
58446;SDS011;44240;51.840;7.258;2024-02-26T10:18:49;4.05;;;2.90;;
58446;SDS011;44240;51.840;7.258;2024-02-26T10:21:25;5.65;;;2.97;;
58446;SDS011;44240;51.840;7.258;2024-02-26T10:23:52;4.22;;;3.30;;
58446;SDS011;44240;51.840;7.258;2024-02-26T10:26:20;5.60;;;3.25;;
58446;SDS011;44240;51.840;7.258;2024-02-26T10:28:48;4.47;;;2.92;;
58446;SDS011;44240;51.840;7.258;2024-02-26T10:31:20;5.85;;;3.20;;
58446;SDS011;44240;51.840;7.258;2024-02-26T10:33:47;4.18;;;2.72;;
58446;SDS011;44240;51.840;7.258;2024-02-26T10:36:15;5.15;;;3.20;;
58446;SDS011;44240;51.840;7.258;2024-02-26T10:38:42;4.30;;;2.95;;
58446;SDS011;44240;51.840;7.258;2024-02-26T10:41:13;5.15;;;3.97;;
58446;SDS011;44240;51.840;7.258;2024-02-26T10:43:43;4.40;;;3.15;;
58446;SDS011;44240;51.840;7.258;2024-02-26T10:46:10;4.78;;;3.28;;
58446;SDS011;44240;51.840;7.258;2024-02-26T10:48:38;5.50;;;3.67;;
58446;SDS011;44240;51.840;7.258;2024-02-26T10:51:05;7.38;;;4.70;;
58446;SDS011;44240;51.840;7.258;2024-02-26T10:53:34;7.03;;;4.10;;
58446;SDS011;44240;51.840;7.258;2024-02-26T10:56:03;4.93;;;3.88;;
58446;SDS011;44240;51.840;7.258;2024-02-26T10:58:33;5.88;;;3.60;;
58446;SDS011;44240;51.840;7.258;2024-02-26T11:01:02;4.82;;;3.33;;
58446;SDS011;44240;51.840;7.258;2024-02-26T11:03:30;5.00;;;3.70;;
58446;SDS011;44240;51.840;7.258;2024-02-26T11:06:01;5.10;;;3.53;;
58446;SDS011;44240;51.840;7.258;2024-02-26T11:08:29;6.90;;;3.80;;
58446;SDS011;44240;51.840;7.258;2024-02-26T11:10:58;5.32;;;3.55;;
58446;SDS011;44240;51.840;7.258;2024-02-26T11:13:27;8.90;;;5.40;;
58446;SDS011;44240;51.840;7.258;2024-02-26T11:16:00;8.23;;;5.07;;
58446;SDS011;44240;51.840;7.258;2024-02-26T11:18:27;5.82;;;3.45;;
58446;SDS011;44240;51.840;7.258;2024-02-26T11:20:55;5.57;;;3.85;;
58446;SDS011;44240;51.840;7.258;2024-02-26T11:23:24;6.60;;;3.92;;
58446;SDS011;44240;51.840;7.258;2024-02-26T11:25:51;4.80;;;3.47;;
58446;SDS011;44240;51.840;7.258;2024-02-26T11:28:21;6.32;;;3.88;;
58446;SDS011;44240;51.840;7.258;2024-02-26T11:30:49;5.53;;;3.78;;
58446;SDS011;44240;51.840;7.258;2024-02-26T11:33:17;4.70;;;3.20;;
58446;SDS011;44240;51.840;7.258;2024-02-26T11:35:46;5.60;;;3.63;;
58446;SDS011;44240;51.840;7.258;2024-02-26T11:38:24;5.10;;;3.97;;
58446;SDS011;44240;51.840;7.258;2024-02-26T11:40:52;6.72;;;4.05;;
58446;SDS011;44240;51.840;7.258;2024-02-26T11:43:23;4.80;;;3.80;;
58446;SDS011;44240;51.840;7.258;2024-02-26T11:46:26;6.57;;;3.42;;
58446;SDS011;44240;51.840;7.258;2024-02-26T11:48:56;5.45;;;3.47;;
58446;SDS011;44240;51.840;7.258;2024-02-26T11:51:32;4.88;;;3.47;;
58446;SDS011;44240;51.840;7.258;2024-02-26T11:54:01;5.68;;;3.40;;
58446;SDS011;44240;51.840;7.258;2024-02-26T11:56:28;5.30;;;3.50;;
58446;SDS011;44240;51.840;7.258;2024-02-26T11:59:11;5.47;;;3.40;;
58446;SDS011;44240;51.840;7.258;2024-02-26T12:01:48;6.97;;;3.70;;
58446;SDS011;44240;51.840;7.258;2024-02-26T12:06:58;4.57;;;2.80;;
58446;SDS011;44240;51.840;7.258;2024-02-26T12:09:39;3.80;;;2.83;;
58446;SDS011;44240;51.840;7.258;2024-02-26T12:12:08;4.65;;;2.53;;
58446;SDS011;44240;51.840;7.258;2024-02-26T12:14:50;3.95;;;3.22;;
58446;SDS011;44240;51.840;7.258;2024-02-26T12:17:19;4.90;;;3.25;;
58446;SDS011;44240;51.840;7.258;2024-02-26T12:19:47;4.30;;;2.85;;
58446;SDS011;44240;51.840;7.258;2024-02-26T12:22:14;4.10;;;2.78;;
58446;SDS011;44240;51.840;7.258;2024-02-26T12:24:42;4.13;;;2.40;;
58446;SDS011;44240;51.840;7.258;2024-02-26T12:27:09;2.55;;;2.35;;
58446;SDS011;44240;51.840;7.258;2024-02-26T12:29:36;3.00;;;2.45;;
58446;SDS011;44240;51.840;7.258;2024-02-26T12:32:04;3.50;;;2.47;;
58446;SDS011;44240;51.840;7.258;2024-02-26T12:34:33;4.47;;;2.50;;
58446;SDS011;44240;51.840;7.258;2024-02-26T12:37:01;3.35;;;2.78;;
58446;SDS011;44240;51.840;7.258;2024-02-26T12:39:28;3.75;;;2.70;;
58446;SDS011;44240;51.840;7.258;2024-02-26T12:41:57;3.45;;;2.30;;
58446;SDS011;44240;51.840;7.258;2024-02-26T12:44:25;3.00;;;2.40;;
58446;SDS011;44240;51.840;7.258;2024-02-26T12:47:02;3.25;;;2.42;;
58446;SDS011;44240;51.840;7.258;2024-02-26T12:49:31;4.13;;;2.30;;
58446;SDS011;44240;51.840;7.258;2024-02-26T12:51:58;2.28;;;1.88;;
58446;SDS011;44240;51.840;7.258;2024-02-26T12:54:31;2.47;;;1.88;;
58446;SDS011;44240;51.840;7.258;2024-02-26T12:57:01;3.08;;;2.40;;
58446;SDS011;44240;51.840;7.258;2024-02-26T12:59:29;3.33;;;2.88;;
58446;SDS011;44240;51.840;7.258;2024-02-26T13:01:57;4.47;;;3.13;;
58446;SDS011;44240;51.840;7.258;2024-02-26T13:04:24;3.08;;;2.60;;
58446;SDS011;44240;51.840;7.258;2024-02-26T13:06:54;3.15;;;2.45;;
58446;SDS011;44240;51.840;7.258;2024-02-26T13:09:22;3.78;;;2.70;;
58446;SDS011;44240;51.840;7.258;2024-02-26T13:11:53;4.65;;;3.13;;
58446;SDS011;44240;51.840;7.258;2024-02-26T13:14:21;5.07;;;2.85;;
58446;SDS011;44240;51.840;7.258;2024-02-26T13:16:55;3.65;;;2.63;;
58446;SDS011;44240;51.840;7.258;2024-02-26T13:19:23;3.17;;;2.80;;
58446;SDS011;44240;51.840;7.258;2024-02-26T13:21:50;3.63;;;2.60;;
58446;SDS011;44240;51.840;7.258;2024-02-26T13:24:17;3.25;;;2.67;;
58446;SDS011;44240;51.840;7.258;2024-02-26T13:26:46;3.05;;;2.53;;
58446;SDS011;44240;51.840;7.258;2024-02-26T13:29:19;4.25;;;2.40;;
58446;SDS011;44240;51.840;7.258;2024-02-26T13:31:46;5.40;;;2.35;;
58446;SDS011;44240;51.840;7.258;2024-02-26T13:34:25;3.10;;;2.13;;
58446;SDS011;44240;51.840;7.258;2024-02-26T13:36:54;3.13;;;2.60;;
58446;SDS011;44240;51.840;7.258;2024-02-26T13:39:24;3.47;;;2.53;;
58446;SDS011;44240;51.840;7.258;2024-02-26T13:41:53;3.05;;;2.28;;
58446;SDS011;44240;51.840;7.258;2024-02-26T13:44:21;6.38;;;4.20;;
58446;SDS011;44240;51.840;7.258;2024-02-26T13:46:48;9.52;;;5.25;;
58446;SDS011;44240;51.840;7.258;2024-02-26T13:49:18;6.95;;;4.75;;
58446;SDS011;44240;51.840;7.258;2024-02-26T13:51:45;4.18;;;3.10;;
58446;SDS011;44240;51.840;7.258;2024-02-26T13:54:12;5.25;;;3.60;;
58446;SDS011;44240;51.840;7.258;2024-02-26T13:56:41;4.32;;;2.75;;
58446;SDS011;44240;51.840;7.258;2024-02-26T13:59:11;3.67;;;2.58;;
58446;SDS011;44240;51.840;7.258;2024-02-26T14:01:38;2.63;;;2.42;;
58446;SDS011;44240;51.840;7.258;2024-02-26T14:04:05;3.33;;;2.38;;
58446;SDS011;44240;51.840;7.258;2024-02-26T14:06:33;4.43;;;2.88;;
58446;SDS011;44240;51.840;7.258;2024-02-26T14:09:00;2.80;;;2.40;;
58446;SDS011;44240;51.840;7.258;2024-02-26T14:11:27;3.45;;;2.60;;
58446;SDS011;44240;51.840;7.258;2024-02-26T14:13:55;4.82;;;2.92;;
58446;SDS011;44240;51.840;7.258;2024-02-26T14:16:22;3.90;;;2.83;;
58446;SDS011;44240;51.840;7.258;2024-02-26T14:18:49;4.57;;;3.00;;
58446;SDS011;44240;51.840;7.258;2024-02-26T14:21:16;5.45;;;3.20;;
58446;SDS011;44240;51.840;7.258;2024-02-26T14:23:43;4.80;;;2.72;;
58446;SDS011;44240;51.840;7.258;2024-02-26T14:26:11;4.45;;;3.05;;
58446;SDS011;44240;51.840;7.258;2024-02-26T14:28:38;5.15;;;2.88;;
58446;SDS011;44240;51.840;7.258;2024-02-26T14:31:05;6.97;;;3.55;;
58446;SDS011;44240;51.840;7.258;2024-02-26T14:33:38;5.40;;;3.38;;
58446;SDS011;44240;51.840;7.258;2024-02-26T14:36:08;5.65;;;3.28;;
58446;SDS011;44240;51.840;7.258;2024-02-26T14:38:35;4.88;;;3.78;;
58446;SDS011;44240;51.840;7.258;2024-02-26T14:41:03;7.10;;;4.03;;
58446;SDS011;44240;51.840;7.258;2024-02-26T14:43:30;6.25;;;4.03;;
58446;SDS011;44240;51.840;7.258;2024-02-26T14:45:58;8.00;;;4.53;;
58446;SDS011;44240;51.840;7.258;2024-02-26T14:48:27;7.72;;;4.80;;
58446;SDS011;44240;51.840;7.258;2024-02-26T14:50:56;9.40;;;5.68;;
58446;SDS011;44240;51.840;7.258;2024-02-26T14:53:22;9.50;;;5.85;;
58446;SDS011;44240;51.840;7.258;2024-02-26T14:55:49;8.77;;;5.80;;
58446;SDS011;44240;51.840;7.258;2024-02-26T14:58:16;8.13;;;4.80;;